createdAt,value
2023-02-09T05:34:01.366Z,99.90
2023-02-09T05:39:03.731Z,99.90
2023-02-09T05:44:06.010Z,99.90
2023-02-09T05:49:08.240Z,99.90
2023-02-09T05:54:10.547Z,99.90
2023-02-09T05:59:12.835Z,99.90
2023-02-09T06:04:16.192Z,99.90
2023-02-09T06:09:19.194Z,99.90
2023-02-09T06:14:21.681Z,99.90
2023-02-09T06:19:24.166Z,99.90
2023-02-09T06:24:26.544Z,99.90
2023-02-09T06:29:28.803Z,99.90
2023-02-09T06:34:31.107Z,99.90
2023-02-09T06:39:33.332Z,99.90
2023-02-09T06:44:35.573Z,99.90
2023-02-09T06:49:37.822Z,99.90
2023-02-09T06:54:40.316Z,99.90
2023-02-09T06:59:42.562Z,99.90
2023-02-09T07:04:45.384Z,99.90
2023-02-09T07:09:47.736Z,99.90
2023-02-09T07:14:49.980Z,99.90
2023-02-09T07:19:52.292Z,99.90
2023-02-09T07:24:54.529Z,99.90
2023-02-09T07:29:56.822Z,99.90
2023-02-09T07:34:59.083Z,99.90
2023-02-09T07:40:01.810Z,99.90
2023-02-09T07:45:04.242Z,99.90
2023-02-09T07:50:06.586Z,99.90
2023-02-09T07:55:08.928Z,99.90
2023-02-09T08:00:11.993Z,99.90
2023-02-09T08:05:49.997Z,99.90
2023-02-09T08:10:54.514Z,99.90
2023-02-09T08:16:02.883Z,99.90
2023-02-09T08:21:08.233Z,99.90
2023-02-09T08:26:12.624Z,99.90
2023-02-09T08:31:18.002Z,99.90
2023-02-09T08:36:21.062Z,99.90
2023-02-09T08:41:23.459Z,99.90
2023-02-09T08:46:25.861Z,99.80
2023-02-09T08:51:28.267Z,98.70
2023-02-09T08:56:30.502Z,98.20
2023-02-09T09:01:33.052Z,98.50
2023-02-09T09:06:35.894Z,98.00
2023-02-09T09:11:38.191Z,96.90
2023-02-09T09:16:40.535Z,96.50
2023-02-09T09:21:42.842Z,97.20
2023-02-09T09:26:45.330Z,95.10
2023-02-09T09:32:01.202Z,95.30
2023-02-09T09:37:20.972Z,94.30
2023-02-09T09:42:46.803Z,93.20
2023-02-09T09:47:49.517Z,93.10
2023-02-09T09:52:55.884Z,92.40
2023-02-09T09:58:04.247Z,91.60
2023-02-09T10:03:18.780Z,92.70
2023-02-09T10:08:32.912Z,91.60
2023-02-09T10:13:53.614Z,89.60
2023-02-09T10:19:00.482Z,89.70
2023-02-09T10:24:02.735Z,88.40
2023-02-09T10:29:10.818Z,85.50
2023-02-09T10:34:20.276Z,85.30
2023-02-09T10:39:35.247Z,85.10
2023-02-09T10:44:40.232Z,85.50
2023-02-09T10:49:42.987Z,84.10
2023-02-09T10:54:56.418Z,82.10
2023-02-09T11:00:00.793Z,81.40
2023-02-09T11:05:22.912Z,78.20
2023-02-09T11:10:29.220Z,78.60
2023-02-09T11:15:43.362Z,77.80
2023-02-09T11:21:14.219Z,77.00
2023-02-09T11:26:44.237Z,71.30
2023-02-09T11:31:55.496Z,70.20
2023-02-09T11:37:29.085Z,69.60
2023-02-09T11:42:45.729Z,68.30
2023-02-09T11:47:58.355Z,67.70
2023-02-09T11:53:05.841Z,66.60
2023-02-09T11:58:45.218Z,68.60
2023-02-09T12:04:07.817Z,65.10
2023-02-09T12:09:31.276Z,63.80
2023-02-09T12:15:04.173Z,65.60
2023-02-09T12:20:22.979Z,61.40
2023-02-09T12:25:59.722Z,59.00
2023-02-09T12:31:06.161Z,59.70
2023-02-09T12:36:08.489Z,59.60
2023-02-09T12:41:12.982Z,59.70
2023-02-09T12:46:17.598Z,60.10
2023-02-09T12:51:41.650Z,60.50
2023-02-09T12:56:43.984Z,61.60
2023-02-09T13:02:08.065Z,62.00
2023-02-09T13:07:33.670Z,59.30
2023-02-09T13:12:45.493Z,57.50
2023-02-09T13:17:50.622Z,57.10
2023-02-09T13:23:20.817Z,54.50
2023-02-09T13:28:23.249Z,54.20
2023-02-09T13:33:31.222Z,53.30
2023-02-09T13:40:16.213Z,54.90
2023-02-09T13:45:18.834Z,55.40
2023-02-09T13:50:24.022Z,55.10
2023-02-09T13:55:27.492Z,52.50
2023-02-09T14:00:29.783Z,49.60
2023-02-09T14:05:56.671Z,50.60
2023-02-09T14:11:07.892Z,49.60
2023-02-09T14:16:15.676Z,48.50
2023-02-09T14:21:26.270Z,47.70
2023-02-09T14:26:46.751Z,46.90
2023-02-09T14:31:55.158Z,48.10
2023-02-09T14:37:22.482Z,47.30
2023-02-09T14:42:24.844Z,46.40
2023-02-09T14:47:35.026Z,45.30
2023-02-09T14:52:39.881Z,45.60
2023-02-09T14:57:42.571Z,45.50
2023-02-09T15:03:47.042Z,47.00
2023-02-09T15:16:18.867Z,46.60
2023-02-09T15:21:23.564Z,49.10
2023-02-09T15:26:26.918Z,52.70
2023-02-09T15:31:29.685Z,56.20
2023-02-09T15:36:32.823Z,57.20
2023-02-09T15:41:53.741Z,58.70
2023-02-09T15:47:14.651Z,59.60
2023-02-09T15:52:18.111Z,61.60
2023-02-09T15:57:20.432Z,63.50
2023-02-09T16:02:23.662Z,65.70
2023-02-09T16:07:26.537Z,66.90
2023-02-09T16:12:28.772Z,68.30
2023-02-09T16:17:31.047Z,69.20
2023-02-09T16:22:33.624Z,71.70
2023-02-09T16:27:35.845Z,71.80
2023-02-09T16:32:38.079Z,74.10
2023-02-09T16:38:02.474Z,75.40
2023-02-09T16:43:09.930Z,74.90
2023-02-09T16:48:26.698Z,77.90
2023-02-09T16:53:33.493Z,78.80
2023-02-09T16:58:36.656Z,78.90
2023-02-09T17:03:43.941Z,79.90
2023-02-09T17:08:47.816Z,81.30
2023-02-09T17:13:50.601Z,80.20
2023-02-09T17:18:56.626Z,80.80
2023-02-09T17:23:59.112Z,79.40
2023-02-09T17:29:01.502Z,79.10
2023-02-09T17:34:07.432Z,79.20
2023-02-09T17:39:11.816Z,78.00
2023-02-09T17:44:26.562Z,77.10
2023-02-09T17:49:34.917Z,78.20
2023-02-09T17:54:37.324Z,79.60
2023-02-09T17:59:40.087Z,80.70
2023-02-09T18:04:42.826Z,81.70
2023-02-09T18:09:45.740Z,81.80
2023-02-09T18:14:48.667Z,79.80
2023-02-09T18:19:54.206Z,82.00
2023-02-09T18:25:00.589Z,80.70
